Time,TemperatureF,DewpointF,PressureIn,WindDirection,WindDirectionDegrees,WindSpeedMPH,WindSpeedGustMPH,Humidity,HourlyPrecipIn,Conditions,Clouds,dailyrainin,SolarRadiationWatts/m^2,SoftwareType,DateUTC
2013-03-09 00:01:00,27.0,24.0,-100.00,NNW,340,4.0,6.0,87,0.00,,,0.00,0.000000,,2013-03-09 07:01:00,
2013-03-09 00:11:00,27.0,24.0,-100.00,NNW,340,4.0,6.0,87,0.00,,,0.00,0.000000,,2013-03-09 07:11:00,
2013-03-09 00:32:00,32.0,26.0,-100.00,NW,308,6.0,8.0,78,0.00,,,0.00,0.000000,,2013-03-09 07:32:00,
2013-03-09 00:42:00,32.0,26.0,-100.00,NW,308,6.0,8.0,78,0.00,,,0.00,0.000000,,2013-03-09 07:42:00,
2013-03-09 00:52:00,32.0,26.0,-100.00,NW,308,6.0,8.0,78,0.00,,,0.00,0.000000,,2013-03-09 07:52:00,
2013-03-09 01:01:00,32.0,26.0,-100.00,NW,308,6.0,8.0,78,0.00,,,0.00,0.000000,,2013-03-09 08:01:00,
2013-03-09 01:11:00,32.0,26.0,-100.00,NW,308,6.0,8.0,78,0.00,,,0.00,0.000000,,2013-03-09 08:11:00,
2013-03-09 01:42:00,35.0,27.0,-100.00,WNW,299,6.0,9.0,71,0.00,,,0.00,0.000000,,2013-03-09 08:42:00,
2013-03-09 01:52:00,35.0,27.0,-100.00,WNW,299,6.0,9.0,71,0.00,,,0.00,0.000000,,2013-03-09 08:52:00,
2013-03-09 02:01:00,35.0,27.0,-100.00,WNW,299,6.0,9.0,71,0.00,,,0.00,0.000000,,2013-03-09 09:01:00,
2013-03-09 02:12:00,35.0,27.0,-100.00,WNW,299,6.0,9.0,71,0.00,,,0.00,0.000000,,2013-03-09 09:12:00,
2013-03-09 02:32:00,29.0,25.0,-100.00,SW,233,3.0,11.0,83,0.00,,,0.00,0.000000,,2013-03-09 09:32:00,
2013-03-09 02:42:00,29.0,25.0,-100.00,SW,233,3.0,11.0,83,0.00,,,0.00,0.000000,,2013-03-09 09:42:00,
2013-03-09 02:52:00,29.0,25.0,-100.00,SW,233,3.0,11.0,83,0.00,,,0.00,0.000000,,2013-03-09 09:52:00,
2013-03-09 03:01:00,29.0,25.0,-100.00,SW,233,3.0,11.0,83,0.00,,,0.00,0.000000,,2013-03-09 10:01:00,
2013-03-09 03:11:00,29.0,25.0,-100.00,SW,233,3.0,11.0,83,0.00,,,0.00,0.000000,,2013-03-09 10:11:00,
2013-03-09 03:42:00,31.0,25.0,-100.00,SSW,202,4.0,7.0,78,0.00,,,0.00,0.000000,,2013-03-09 10:42:00,
2013-03-09 03:52:00,31.0,25.0,-100.00,SSW,202,4.0,7.0,78,0.00,,,0.00,0.000000,,2013-03-09 10:52:00,
2013-03-09 04:01:00,31.0,25.0,-100.00,SSW,202,4.0,7.0,78,0.00,,,0.00,0.000000,,2013-03-09 11:01:00,
2013-03-09 04:11:00,31.0,25.0,-100.00,SSW,202,4.0,7.0,78,0.00,,,0.00,0.000000,,2013-03-09 11:11:00,
2013-03-09 04:32:00,25.0,23.0,-100.00,North,5,4.0,7.0,91,0.00,,,0.00,0.000000,,2013-03-09 11:32:00,
2013-03-09 04:42:00,25.0,23.0,-100.00,North,5,4.0,7.0,91,0.00,,,0.00,0.000000,,2013-03-09 11:42:00,
2013-03-09 04:52:00,25.0,23.0,-100.00,North,5,4.0,7.0,91,0.00,,,0.00,0.000000,,2013-03-09 11:52:00,
2013-03-09 05:01:00,25.0,23.0,-100.00,North,5,4.0,7.0,91,0.00,,,0.00,0.000000,,2013-03-09 12:01:00,
2013-03-09 05:11:00,25.0,23.0,-100.00,North,5,4.0,7.0,91,0.00,,,0.00,0.000000,,2013-03-09 12:11:00,
2013-03-09 05:32:00,23.0,21.0,-100.00,East,81,4.0,8.0,93,0.00,,,0.00,0.000000,,2013-03-09 12:32:00,
2013-03-09 05:42:00,23.0,21.0,-100.00,East,81,4.0,8.0,93,0.00,,,0.00,0.000000,,2013-03-09 12:42:00,
2013-03-09 05:52:00,23.0,21.0,-100.00,East,81,4.0,8.0,93,0.00,,,0.00,0.000000,,2013-03-09 12:52:00,
2013-03-09 06:02:00,23.0,21.0,-100.00,East,81,4.0,8.0,93,0.00,,,0.00,0.000000,,2013-03-09 13:02:00,
2013-03-09 06:11:00,23.0,21.0,-100.00,East,81,4.0,8.0,93,0.00,,,0.00,0.000000,,2013-03-09 13:11:00,
2013-03-09 06:32:00,24.0,23.0,-100.00,NNE,27,4.0,11.0,96,0.00,,,-99.99,0.000000,,2013-03-09 13:32:00,
2013-03-09 06:42:00,24.0,23.0,-100.00,NNE,27,4.0,11.0,96,0.00,,,-99.99,0.000000,,2013-03-09 13:42:00,
2013-03-09 06:52:00,24.0,23.0,-100.00,NNE,27,4.0,11.0,96,0.00,,,-99.99,0.000000,,2013-03-09 13:52:00,
2013-03-09 07:01:00,24.0,23.0,-100.00,NNE,27,4.0,11.0,96,0.00,,,-99.99,0.000000,,2013-03-09 14:01:00,
2013-03-09 07:11:00,24.0,23.0,-100.00,NNE,27,4.0,11.0,96,0.00,,,-99.99,0.000000,,2013-03-09 14:11:00,
2013-03-09 07:32:00,24.0,23.0,-100.00,NE,53,3.0,12.0,96,0.00,,,0.00,6.000000,,2013-03-09 14:32:00,
2013-03-09 07:42:00,24.0,23.0,-100.00,NE,53,3.0,12.0,96,0.00,,,0.00,6.000000,,2013-03-09 14:42:00,
2013-03-09 07:52:00,24.0,23.0,-100.00,NE,53,3.0,12.0,96,0.00,,,0.00,6.000000,,2013-03-09 14:52:00,
2013-03-09 08:02:00,24.0,23.0,-100.00,NE,53,3.0,12.0,96,0.00,,,0.00,6.000000,,2013-03-09 15:02:00,
2013-03-09 08:11:00,24.0,23.0,-100.00,NE,53,3.0,12.0,96,0.00,,,0.00,6.000000,,2013-03-09 15:11:00,
2013-03-09 08:32:00,26.0,25.0,-100.00,SSW,196,2.0,7.0,96,0.00,,,0.00,44.000000,,2013-03-09 15:32:00,
2013-03-09 08:42:00,26.0,25.0,-100.00,SSW,196,2.0,7.0,96,0.00,,,0.00,44.000000,,2013-03-09 15:42:00,
2013-03-09 08:52:00,26.0,25.0,-100.00,SSW,196,2.0,7.0,96,0.00,,,0.00,44.000000,,2013-03-09 15:52:00,
2013-03-09 09:01:00,26.0,25.0,-100.00,SSW,196,2.0,7.0,96,0.00,,,0.00,44.000000,,2013-03-09 16:01:00,
2013-03-09 09:11:00,26.0,25.0,-100.00,SSW,196,2.0,7.0,96,0.00,,,0.00,44.000000,,2013-03-09 16:11:00,
2013-03-09 09:32:00,29.0,27.0,-100.00,South,183,3.0,6.0,94,0.00,,,0.00,113.000000,,2013-03-09 16:32:00,
2013-03-09 09:42:00,29.0,27.0,-100.00,South,183,3.0,6.0,94,0.00,,,0.00,113.000000,,2013-03-09 16:42:00,
2013-03-09 09:52:00,29.0,27.0,-100.00,South,183,3.0,6.0,94,0.00,,,0.00,113.000000,,2013-03-09 16:52:00,
2013-03-09 10:01:00,29.0,27.0,-100.00,South,183,3.0,6.0,94,0.00,,,0.00,113.000000,,2013-03-09 17:01:00,
2013-03-09 10:11:00,29.0,27.0,-100.00,South,183,3.0,6.0,94,0.00,,,0.00,113.000000,,2013-03-09 17:11:00,
2013-03-09 10:42:00,38.0,29.0,-100.00,NE,52,3.0,6.0,71,0.00,,,0.00,342.000000,,2013-03-09 17:42:00,
2013-03-09 10:52:00,38.0,29.0,-100.00,NE,52,3.0,6.0,71,0.00,,,0.00,342.000000,,2013-03-09 17:52:00,
2013-03-09 11:02:00,38.0,29.0,-100.00,NE,52,3.0,6.0,71,0.00,,,0.00,342.000000,,2013-03-09 18:02:00,
2013-03-09 11:11:00,38.0,29.0,-100.00,NE,52,3.0,6.0,71,0.00,,,0.00,342.000000,,2013-03-09 18:11:00,
2013-03-09 11:32:00,43.0,13.0,-100.00,NNW,345,11.0,25.0,29,0.00,,,0.00,425.000000,,2013-03-09 18:32:00,
2013-03-09 11:42:00,43.0,13.0,-100.00,NNW,345,11.0,25.0,29,0.00,,,0.00,425.000000,,2013-03-09 18:42:00,
2013-03-09 11:52:00,43.0,13.0,-100.00,NNW,345,11.0,25.0,29,0.00,,,0.00,425.000000,,2013-03-09 18:52:00,
2013-03-09 12:01:00,43.0,13.0,-100.00,NNW,345,11.0,25.0,29,0.00,,,0.00,425.000000,,2013-03-09 19:01:00,
2013-03-09 12:11:00,43.0,13.0,-100.00,NNW,345,11.0,25.0,29,0.00,,,0.00,425.000000,,2013-03-09 19:11:00,
2013-03-09 12:42:00,45.0,7.0,-100.00,NNW,335,18.0,29.0,21,0.00,,,0.00,622.000000,,2013-03-09 19:42:00,
2013-03-09 12:52:00,45.0,7.0,-100.00,NNW,335,18.0,29.0,21,0.00,,,0.00,622.000000,,2013-03-09 19:52:00,
2013-03-09 13:01:00,45.0,7.0,-100.00,NNW,335,18.0,29.0,21,0.00,,,0.00,622.000000,,2013-03-09 20:01:00,
2013-03-09 13:11:00,45.0,7.0,-100.00,NNW,335,18.0,29.0,21,0.00,,,0.00,622.000000,,2013-03-09 20:11:00,
2013-03-09 13:32:00,47.0,10.0,-100.00,NW,326,15.0,31.0,22,0.00,,,0.00,878.000000,,2013-03-09 20:32:00,
2013-03-09 13:42:00,47.0,10.0,-100.00,NW,326,15.0,31.0,22,0.00,,,0.00,878.000000,,2013-03-09 20:42:00,
2013-03-09 13:52:00,47.0,10.0,-100.00,NW,326,15.0,31.0,22,0.00,,,0.00,878.000000,,2013-03-09 20:52:00,
2013-03-09 14:02:00,47.0,10.0,-100.00,NW,326,15.0,31.0,22,0.00,,,0.00,878.000000,,2013-03-09 21:02:00,
2013-03-09 14:12:00,47.0,10.0,-100.00,NW,326,15.0,31.0,22,0.00,,,0.00,878.000000,,2013-03-09 21:12:00,
2013-03-09 14:32:00,45.0,14.0,-100.00,NNW,336,14.0,25.0,28,0.00,,,0.00,839.000000,,2013-03-09 21:32:00,
2013-03-09 14:42:00,45.0,14.0,-100.00,NNW,336,14.0,25.0,28,0.00,,,0.00,839.000000,,2013-03-09 21:42:00,
2013-03-09 14:52:00,45.0,14.0,-100.00,NNW,336,14.0,25.0,28,0.00,,,0.00,839.000000,,2013-03-09 21:52:00,
2013-03-09 15:01:00,45.0,14.0,-100.00,NNW,336,14.0,25.0,28,0.00,,,0.00,839.000000,,2013-03-09 22:01:00,
2013-03-09 15:11:00,45.0,14.0,-100.00,NNW,336,14.0,25.0,28,0.00,,,0.00,839.000000,,2013-03-09 22:11:00,
2013-03-09 15:42:00,43.0,11.0,-100.00,NW,321,17.0,30.0,27,0.00,,,0.00,714.000000,,2013-03-09 22:42:00,
2013-03-09 15:52:00,43.0,11.0,-100.00,NW,321,17.0,30.0,27,0.00,,,0.00,714.000000,,2013-03-09 22:52:00,
2013-03-09 16:01:00,43.0,11.0,-100.00,NW,321,17.0,30.0,27,0.00,,,0.00,714.000000,,2013-03-09 23:01:00,
2013-03-09 16:11:00,43.0,11.0,-100.00,NW,321,17.0,30.0,27,0.00,,,0.00,714.000000,,2013-03-09 23:11:00,
2013-03-09 16:32:00,40.0,8.0,-100.00,NW,323,23.0,36.0,26,0.00,,,0.00,525.000000,,2013-03-09 23:32:00,
2013-03-09 16:42:00,40.0,8.0,-100.00,NW,323,23.0,36.0,26,0.00,,,0.00,525.000000,,2013-03-09 23:42:00,
2013-03-09 16:52:00,40.0,8.0,-100.00,NW,323,23.0,36.0,26,0.00,,,0.00,525.000000,,2013-03-09 23:52:00,
2013-03-09 17:01:00,40.0,8.0,-100.00,NW,323,23.0,36.0,26,0.00,,,0.00,525.000000,,2013-03-10 00:01:00,
2013-03-09 17:11:00,40.0,8.0,-100.00,NW,323,23.0,36.0,26,0.00,,,0.00,525.000000,,2013-03-10 00:11:00,
2013-03-09 17:32:00,36.0,8.0,-100.00,NNW,341,17.0,37.0,30,0.00,,,0.00,275.000000,,2013-03-10 00:32:00,
2013-03-09 17:43:00,36.0,8.0,-100.00,NNW,341,17.0,37.0,30,0.00,,,0.00,275.000000,,2013-03-10 00:43:00,
2013-03-09 17:52:00,36.0,8.0,-100.00,NNW,341,17.0,37.0,30,0.00,,,0.00,275.000000,,2013-03-10 00:52:00,
2013-03-09 18:01:00,36.0,8.0,-100.00,NNW,341,17.0,37.0,30,0.00,,,0.00,275.000000,,2013-03-10 01:01:00,
2013-03-09 18:11:00,36.0,8.0,-100.00,NNW,341,17.0,37.0,30,0.00,,,0.00,275.000000,,2013-03-10 01:11:00,
2013-03-09 18:32:00,34.0,10.0,-100.00,NNW,346,17.0,39.0,36,0.00,,,-99.99,13.000000,,2013-03-10 01:32:00,
2013-03-09 18:42:00,34.0,10.0,-100.00,NNW,346,17.0,39.0,36,0.00,,,-99.99,13.000000,,2013-03-10 01:42:00,
2013-03-09 18:52:00,34.0,10.0,-100.00,NNW,346,17.0,39.0,36,0.00,,,-99.99,13.000000,,2013-03-10 01:52:00,
2013-03-09 19:01:00,34.0,10.0,-100.00,NNW,346,17.0,39.0,36,0.00,,,-99.99,13.000000,,2013-03-10 02:01:00,
2013-03-09 19:11:00,34.0,10.0,-100.00,NNW,346,17.0,39.0,36,0.00,,,-99.99,13.000000,,2013-03-10 02:11:00,
2013-03-09 19:42:00,32.0,12.0,-100.00,NNW,336,13.0,25.0,42,0.00,,,-99.99,0.000000,,2013-03-10 02:42:00,
2013-03-09 19:52:00,32.0,12.0,-100.00,NNW,336,13.0,25.0,42,0.00,,,-99.99,0.000000,,2013-03-10 02:52:00,
2013-03-09 20:02:00,32.0,12.0,-100.00,NNW,336,13.0,25.0,42,0.00,,,-99.99,0.000000,,2013-03-10 03:02:00,
2013-03-09 20:11:00,32.0,12.0,-100.00,NNW,336,13.0,25.0,42,0.00,,,-99.99,0.000000,,2013-03-10 03:11:00,
2013-03-09 20:32:00,33.0,14.0,-100.00,NNW,344,15.0,27.0,45,0.00,,,0.00,0.000000,,2013-03-10 03:32:00,
2013-03-09 20:42:00,33.0,14.0,-100.00,NNW,344,15.0,27.0,45,0.00,,,0.00,0.000000,,2013-03-10 03:42:00,
2013-03-09 20:52:00,33.0,14.0,-100.00,NNW,344,15.0,27.0,45,0.00,,,0.00,0.000000,,2013-03-10 03:52:00,
2013-03-09 21:01:00,33.0,14.0,-100.00,NNW,344,15.0,27.0,45,0.00,,,0.00,0.000000,,2013-03-10 04:01:00,
2013-03-09 21:11:00,33.0,14.0,-100.00,NNW,344,15.0,27.0,45,0.00,,,0.00,0.000000,,2013-03-10 04:11:00,
2013-03-09 21:32:00,30.0,17.0,-100.00,North,4,5.0,28.0,57,0.00,,,0.00,0.000000,,2013-03-10 04:32:00,
2013-03-09 21:42:00,30.0,17.0,-100.00,North,4,5.0,28.0,57,0.00,,,0.00,0.000000,,2013-03-10 04:42:00,
2013-03-09 21:52:00,30.0,17.0,-100.00,North,4,5.0,28.0,57,0.00,,,0.00,0.000000,,2013-03-10 04:52:00,
2013-03-09 22:01:00,30.0,17.0,-100.00,North,4,5.0,28.0,57,0.00,,,0.00,0.000000,,2013-03-10 05:01:00,
2013-03-09 22:11:00,30.0,17.0,-100.00,North,4,5.0,28.0,57,0.00,,,0.00,0.000000,,2013-03-10 05:11:00,
2013-03-09 22:32:00,28.0,19.0,-100.00,NW,305,3.0,20.0,68,0.00,,,0.00,0.000000,,2013-03-10 05:32:00,
2013-03-09 22:42:00,28.0,19.0,-100.00,NW,305,3.0,20.0,68,0.00,,,0.00,0.000000,,2013-03-10 05:42:00,
2013-03-09 22:52:00,28.0,19.0,-100.00,NW,305,3.0,20.0,68,0.00,,,0.00,0.000000,,2013-03-10 05:52:00,
2013-03-09 23:01:00,28.0,19.0,-100.00,NW,305,3.0,20.0,68,0.00,,,0.00,0.000000,,2013-03-10 06:01:00,
2013-03-09 23:11:00,28.0,19.0,-100.00,NW,305,3.0,20.0,68,0.00,,,0.00,0.000000,,2013-03-10 06:11:00,
2013-03-09 23:32:00,27.0,19.0,-100.00,ENE,73,3.0,24.0,70,0.00,,,0.00,0.000000,,2013-03-10 06:32:00,
2013-03-09 23:42:00,27.0,19.0,-100.00,ENE,73,3.0,24.0,70,0.00,,,0.00,0.000000,,2013-03-10 06:42:00,
2013-03-09 23:52:00,27.0,19.0,-100.00,ENE,73,3.0,24.0,70,0.00,,,0.00,0.000000,,2013-03-10 06:52:00,